sensor_id;sensor_type;location;lat;lon;timestamp;P1;durP1;ratioP1;P2;durP2;ratioP2
37451;SDS011;23314;51.114;6.900;2023-09-19T00:00:43;5.27;;;2.10;;
37451;SDS011;23314;51.114;6.900;2023-09-19T00:03:09;5.63;;;2.30;;
37451;SDS011;23314;51.114;6.900;2023-09-19T00:05:37;6.73;;;2.50;;
37451;SDS011;23314;51.114;6.900;2023-09-19T00:08:09;6.07;;;2.43;;
37451;SDS011;23314;51.114;6.900;2023-09-19T00:10:34;7.37;;;2.33;;
37451;SDS011;23314;51.114;6.900;2023-09-19T00:13:00;8.87;;;2.57;;
37451;SDS011;23314;51.114;6.900;2023-09-19T00:15:31;7.47;;;2.20;;
37451;SDS011;23314;51.114;6.900;2023-09-19T00:18:02;7.07;;;2.53;;
37451;SDS011;23314;51.114;6.900;2023-09-19T00:20:30;9.93;;;2.60;;
37451;SDS011;23314;51.114;6.900;2023-09-19T00:22:56;9.07;;;2.30;;
37451;SDS011;23314;51.114;6.900;2023-09-19T00:25:30;7.30;;;2.20;;
37451;SDS011;23314;51.114;6.900;2023-09-19T00:27:57;7.30;;;2.53;;
37451;SDS011;23314;51.114;6.900;2023-09-19T00:30:23;10.27;;;3.73;;
37451;SDS011;23314;51.114;6.900;2023-09-19T00:32:49;6.57;;;2.83;;
37451;SDS011;23314;51.114;6.900;2023-09-19T00:35:19;5.90;;;2.43;;
37451;SDS011;23314;51.114;6.900;2023-09-19T00:37:50;6.20;;;2.13;;
37451;SDS011;23314;51.114;6.900;2023-09-19T00:40:16;7.93;;;2.70;;
37451;SDS011;23314;51.114;6.900;2023-09-19T00:42:43;6.30;;;2.47;;
37451;SDS011;23314;51.114;6.900;2023-09-19T00:45:09;8.63;;;2.80;;
37451;SDS011;23314;51.114;6.900;2023-09-19T00:47:37;7.37;;;2.87;;
37451;SDS011;23314;51.114;6.900;2023-09-19T00:50:07;10.63;;;2.63;;
37451;SDS011;23314;51.114;6.900;2023-09-19T00:52:34;6.37;;;2.40;;
37451;SDS011;23314;51.114;6.900;2023-09-19T00:55:03;7.03;;;2.80;;
37451;SDS011;23314;51.114;6.900;2023-09-19T00:57:30;10.47;;;3.10;;
37451;SDS011;23314;51.114;6.900;2023-09-19T00:59:57;10.77;;;3.10;;
37451;SDS011;23314;51.114;6.900;2023-09-19T01:02:24;11.23;;;2.90;;
37451;SDS011;23314;51.114;6.900;2023-09-19T01:04:52;9.30;;;2.90;;
37451;SDS011;23314;51.114;6.900;2023-09-19T01:07:18;9.80;;;2.43;;
37451;SDS011;23314;51.114;6.900;2023-09-19T01:09:44;7.80;;;2.83;;
37451;SDS011;23314;51.114;6.900;2023-09-19T01:12:09;10.60;;;2.60;;
37451;SDS011;23314;51.114;6.900;2023-09-19T01:17:29;10.40;;;2.70;;
37451;SDS011;23314;51.114;6.900;2023-09-19T01:20:15;6.87;;;2.80;;
37451;SDS011;23314;51.114;6.900;2023-09-19T01:28:54;7.80;;;2.73;;
37451;SDS011;23314;51.114;6.900;2023-09-19T01:31:44;5.77;;;2.40;;
37451;SDS011;23314;51.114;6.900;2023-09-19T01:34:10;9.17;;;2.60;;
37451;SDS011;23314;51.114;6.900;2023-09-19T01:36:36;6.07;;;2.47;;
37451;SDS011;23314;51.114;6.900;2023-09-19T01:39:12;10.20;;;3.20;;
37451;SDS011;23314;51.114;6.900;2023-09-19T01:48:15;10.63;;;2.80;;
37451;SDS011;23314;51.114;6.900;2023-09-19T01:53:05;8.40;;;2.60;;
37451;SDS011;23314;51.114;6.900;2023-09-19T01:55:37;7.17;;;2.77;;
37451;SDS011;23314;51.114;6.900;2023-09-19T02:01:08;8.90;;;2.67;;
37451;SDS011;23314;51.114;6.900;2023-09-19T02:03:38;11.57;;;3.13;;
37451;SDS011;23314;51.114;6.900;2023-09-19T02:06:04;9.17;;;2.70;;
37451;SDS011;23314;51.114;6.900;2023-09-19T02:08:30;11.00;;;2.67;;
37451;SDS011;23314;51.114;6.900;2023-09-19T02:10:58;11.53;;;3.30;;
37451;SDS011;23314;51.114;6.900;2023-09-19T02:13:25;12.70;;;3.60;;
37451;SDS011;23314;51.114;6.900;2023-09-19T02:15:52;13.03;;;2.90;;
37451;SDS011;23314;51.114;6.900;2023-09-19T02:18:18;6.60;;;2.40;;
37451;SDS011;23314;51.114;6.900;2023-09-19T02:20:43;10.90;;;2.97;;
37451;SDS011;23314;51.114;6.900;2023-09-19T02:23:09;7.57;;;3.00;;
37451;SDS011;23314;51.114;6.900;2023-09-19T02:25:35;11.30;;;3.03;;
37451;SDS011;23314;51.114;6.900;2023-09-19T02:28:01;5.30;;;2.33;;
37451;SDS011;23314;51.114;6.900;2023-09-19T02:30:28;7.57;;;2.97;;
37451;SDS011;23314;51.114;6.900;2023-09-19T02:32:53;7.47;;;2.40;;
37451;SDS011;23314;51.114;6.900;2023-09-19T02:35:19;7.37;;;2.73;;
37451;SDS011;23314;51.114;6.900;2023-09-19T02:37:45;10.77;;;2.83;;
37451;SDS011;23314;51.114;6.900;2023-09-19T02:40:10;10.20;;;2.83;;
37451;SDS011;23314;51.114;6.900;2023-09-19T02:42:44;7.83;;;3.00;;
37451;SDS011;23314;51.114;6.900;2023-09-19T02:45:17;9.13;;;2.87;;
37451;SDS011;23314;51.114;6.900;2023-09-19T02:47:43;11.87;;;2.83;;
37451;SDS011;23314;51.114;6.900;2023-09-19T02:50:10;8.07;;;2.53;;
37451;SDS011;23314;51.114;6.900;2023-09-19T02:52:41;9.87;;;2.60;;
37451;SDS011;23314;51.114;6.900;2023-09-19T02:55:13;8.67;;;2.90;;
37451;SDS011;23314;51.114;6.900;2023-09-19T02:57:45;7.60;;;2.90;;
37451;SDS011;23314;51.114;6.900;2023-09-19T03:00:12;13.63;;;3.47;;
37451;SDS011;23314;51.114;6.900;2023-09-19T03:02:38;11.53;;;3.10;;
37451;SDS011;23314;51.114;6.900;2023-09-19T03:05:06;10.00;;;3.07;;
37451;SDS011;23314;51.114;6.900;2023-09-19T03:07:32;10.20;;;2.87;;
37451;SDS011;23314;51.114;6.900;2023-09-19T03:09:57;10.57;;;2.53;;
37451;SDS011;23314;51.114;6.900;2023-09-19T03:12:23;9.13;;;2.83;;
37451;SDS011;23314;51.114;6.900;2023-09-19T03:14:48;8.33;;;2.60;;
37451;SDS011;23314;51.114;6.900;2023-09-19T03:17:13;12.17;;;2.70;;
37451;SDS011;23314;51.114;6.900;2023-09-19T03:19:39;8.20;;;2.70;;
37451;SDS011;23314;51.114;6.900;2023-09-19T03:22:05;7.37;;;2.50;;
37451;SDS011;23314;51.114;6.900;2023-09-19T03:24:30;11.80;;;3.00;;
37451;SDS011;23314;51.114;6.900;2023-09-19T03:26:56;9.47;;;2.67;;
37451;SDS011;23314;51.114;6.900;2023-09-19T03:29:22;13.10;;;3.40;;
37451;SDS011;23314;51.114;6.900;2023-09-19T03:31:48;8.93;;;3.13;;
37451;SDS011;23314;51.114;6.900;2023-09-19T03:34:13;13.57;;;2.80;;
37451;SDS011;23314;51.114;6.900;2023-09-19T03:36:38;8.93;;;2.77;;
37451;SDS011;23314;51.114;6.900;2023-09-19T03:39:05;11.87;;;3.03;;
37451;SDS011;23314;51.114;6.900;2023-09-19T03:41:31;12.77;;;2.77;;
37451;SDS011;23314;51.114;6.900;2023-09-19T03:43:58;7.53;;;2.50;;
37451;SDS011;23314;51.114;6.900;2023-09-19T03:46:23;8.03;;;3.30;;
37451;SDS011;23314;51.114;6.900;2023-09-19T03:48:49;12.23;;;3.17;;
37451;SDS011;23314;51.114;6.900;2023-09-19T03:51:15;11.10;;;3.30;;
37451;SDS011;23314;51.114;6.900;2023-09-19T03:53:40;14.37;;;2.93;;
37451;SDS011;23314;51.114;6.900;2023-09-19T03:56:06;12.27;;;3.70;;
37451;SDS011;23314;51.114;6.900;2023-09-19T03:58:33;13.83;;;3.00;;
37451;SDS011;23314;51.114;6.900;2023-09-19T04:01:00;11.10;;;3.17;;
37451;SDS011;23314;51.114;6.900;2023-09-19T04:03:26;8.53;;;2.80;;
37451;SDS011;23314;51.114;6.900;2023-09-19T04:05:59;10.63;;;3.10;;
37451;SDS011;23314;51.114;6.900;2023-09-19T04:08:25;14.63;;;3.30;;
37451;SDS011;23314;51.114;6.900;2023-09-19T04:10:51;12.77;;;3.20;;
37451;SDS011;23314;51.114;6.900;2023-09-19T04:13:17;9.67;;;2.60;;
37451;SDS011;23314;51.114;6.900;2023-09-19T04:15:42;16.53;;;3.40;;
37451;SDS011;23314;51.114;6.900;2023-09-19T04:18:08;11.90;;;2.80;;
37451;SDS011;23314;51.114;6.900;2023-09-19T04:20:33;10.80;;;3.50;;
37451;SDS011;23314;51.114;6.900;2023-09-19T04:22:58;8.10;;;2.53;;
37451;SDS011;23314;51.114;6.900;2023-09-19T04:25:25;14.13;;;2.97;;
37451;SDS011;23314;51.114;6.900;2023-09-19T04:27:51;10.97;;;3.33;;
37451;SDS011;23314;51.114;6.900;2023-09-19T04:30:17;14.90;;;3.10;;
37451;SDS011;23314;51.114;6.900;2023-09-19T04:32:42;10.93;;;2.87;;
37451;SDS011;23314;51.114;6.900;2023-09-19T04:35:08;12.00;;;2.93;;
37451;SDS011;23314;51.114;6.900;2023-09-19T04:37:38;12.27;;;2.73;;
37451;SDS011;23314;51.114;6.900;2023-09-19T04:40:08;10.83;;;2.90;;
37451;SDS011;23314;51.114;6.900;2023-09-19T04:42:38;14.67;;;2.87;;
37451;SDS011;23314;51.114;6.900;2023-09-19T04:45:04;11.20;;;2.80;;
37451;SDS011;23314;51.114;6.900;2023-09-19T04:47:30;9.43;;;3.23;;
37451;SDS011;23314;51.114;6.900;2023-09-19T04:49:55;10.00;;;2.93;;
37451;SDS011;23314;51.114;6.900;2023-09-19T04:52:24;8.43;;;2.80;;
37451;SDS011;23314;51.114;6.900;2023-09-19T04:54:49;11.73;;;2.90;;
37451;SDS011;23314;51.114;6.900;2023-09-19T04:57:14;10.73;;;2.73;;
37451;SDS011;23314;51.114;6.900;2023-09-19T04:59:41;11.10;;;3.63;;
37451;SDS011;23314;51.114;6.900;2023-09-19T05:02:06;13.10;;;3.47;;
37451;SDS011;23314;51.114;6.900;2023-09-19T05:04:33;9.77;;;3.10;;
37451;SDS011;23314;51.114;6.900;2023-09-19T05:06:58;13.47;;;3.27;;
37451;SDS011;23314;51.114;6.900;2023-09-19T05:09:25;10.57;;;3.13;;
37451;SDS011;23314;51.114;6.900;2023-09-19T05:11:50;15.00;;;3.43;;
37451;SDS011;23314;51.114;6.900;2023-09-19T05:14:16;9.63;;;3.10;;
37451;SDS011;23314;51.114;6.900;2023-09-19T05:16:41;11.77;;;3.87;;
37451;SDS011;23314;51.114;6.900;2023-09-19T05:19:07;13.03;;;3.40;;
37451;SDS011;23314;51.114;6.900;2023-09-19T05:21:36;12.93;;;3.10;;
37451;SDS011;23314;51.114;6.900;2023-09-19T05:24:04;8.97;;;3.20;;
37451;SDS011;23314;51.114;6.900;2023-09-19T05:26:31;12.80;;;3.37;;
37451;SDS011;23314;51.114;6.900;2023-09-19T05:28:57;8.43;;;3.00;;
37451;SDS011;23314;51.114;6.900;2023-09-19T05:31:22;11.27;;;3.27;;
37451;SDS011;23314;51.114;6.900;2023-09-19T05:33:49;10.23;;;3.27;;
37451;SDS011;23314;51.114;6.900;2023-09-19T05:36:15;15.47;;;3.30;;
37451;SDS011;23314;51.114;6.900;2023-09-19T05:38:42;7.83;;;3.10;;
37451;SDS011;23314;51.114;6.900;2023-09-19T05:41:07;13.80;;;3.73;;
37451;SDS011;23314;51.114;6.900;2023-09-19T05:43:35;10.33;;;3.20;;
37451;SDS011;23314;51.114;6.900;2023-09-19T05:46:02;13.60;;;3.60;;
37451;SDS011;23314;51.114;6.900;2023-09-19T05:48:28;8.17;;;3.10;;
37451;SDS011;23314;51.114;6.900;2023-09-19T05:50:53;12.63;;;3.10;;
37451;SDS011;23314;51.114;6.900;2023-09-19T05:53:19;14.87;;;2.60;;
37451;SDS011;23314;51.114;6.900;2023-09-19T05:55:44;9.27;;;3.33;;
37451;SDS011;23314;51.114;6.900;2023-09-19T05:58:10;10.90;;;2.90;;
37451;SDS011;23314;51.114;6.900;2023-09-19T06:00:39;12.57;;;3.60;;
37451;SDS011;23314;51.114;6.900;2023-09-19T06:03:06;11.00;;;3.30;;
37451;SDS011;23314;51.114;6.900;2023-09-19T06:05:33;17.97;;;3.47;;
37451;SDS011;23314;51.114;6.900;2023-09-19T06:07:58;6.93;;;2.87;;
37451;SDS011;23314;51.114;6.900;2023-09-19T06:10:25;13.13;;;3.37;;
37451;SDS011;23314;51.114;6.900;2023-09-19T06:12:52;10.50;;;3.00;;
37451;SDS011;23314;51.114;6.900;2023-09-19T06:15:18;11.97;;;3.43;;
37451;SDS011;23314;51.114;6.900;2023-09-19T06:17:51;13.30;;;3.60;;
37451;SDS011;23314;51.114;6.900;2023-09-19T06:20:20;14.00;;;3.50;;
37451;SDS011;23314;51.114;6.900;2023-09-19T06:22:47;15.23;;;3.73;;
37451;SDS011;23314;51.114;6.900;2023-09-19T06:25:13;12.37;;;3.27;;
37451;SDS011;23314;51.114;6.900;2023-09-19T06:30:19;14.00;;;3.47;;
37451;SDS011;23314;51.114;6.900;2023-09-19T06:32:44;12.00;;;3.50;;
37451;SDS011;23314;51.114;6.900;2023-09-19T06:35:10;15.20;;;3.53;;
37451;SDS011;23314;51.114;6.900;2023-09-19T06:37:37;12.27;;;3.47;;
37451;SDS011;23314;51.114;6.900;2023-09-19T06:40:09;9.57;;;3.50;;
37451;SDS011;23314;51.114;6.900;2023-09-19T06:42:39;10.13;;;3.70;;
37451;SDS011;23314;51.114;6.900;2023-09-19T06:45:06;17.17;;;3.53;;
37451;SDS011;23314;51.114;6.900;2023-09-19T06:47:32;14.47;;;3.70;;
37451;SDS011;23314;51.114;6.900;2023-09-19T06:49:57;14.10;;;3.40;;
37451;SDS011;23314;51.114;6.900;2023-09-19T06:52:23;13.37;;;3.37;;
37451;SDS011;23314;51.114;6.900;2023-09-19T06:54:48;11.67;;;3.27;;
37451;SDS011;23314;51.114;6.900;2023-09-19T06:57:15;13.10;;;3.40;;
37451;SDS011;23314;51.114;6.900;2023-09-19T06:59:41;12.80;;;3.07;;
37451;SDS011;23314;51.114;6.900;2023-09-19T07:02:06;14.33;;;4.13;;
37451;SDS011;23314;51.114;6.900;2023-09-19T07:04:32;10.87;;;3.10;;
37451;SDS011;23314;51.114;6.900;2023-09-19T07:06:57;11.27;;;3.10;;
37451;SDS011;23314;51.114;6.900;2023-09-19T07:09:23;14.40;;;3.33;;
37451;SDS011;23314;51.114;6.900;2023-09-19T07:11:48;12.97;;;3.63;;
37451;SDS011;23314;51.114;6.900;2023-09-19T07:14:16;15.33;;;3.20;;
37451;SDS011;23314;51.114;6.900;2023-09-19T07:16:41;11.90;;;3.63;;
37451;SDS011;23314;51.114;6.900;2023-09-19T07:19:09;13.80;;;3.77;;
37451;SDS011;23314;51.114;6.900;2023-09-19T07:21:35;12.13;;;3.47;;
37451;SDS011;23314;51.114;6.900;2023-09-19T07:24:00;13.00;;;3.83;;
37451;SDS011;23314;51.114;6.900;2023-09-19T07:26:26;18.27;;;3.80;;
37451;SDS011;23314;51.114;6.900;2023-09-19T07:28:53;15.37;;;3.73;;
37451;SDS011;23314;51.114;6.900;2023-09-19T07:31:18;16.83;;;3.90;;
37451;SDS011;23314;51.114;6.900;2023-09-19T07:33:44;13.87;;;3.33;;
37451;SDS011;23314;51.114;6.900;2023-09-19T07:36:10;10.37;;;3.10;;
37451;SDS011;23314;51.114;6.900;2023-09-19T07:38:36;13.13;;;3.97;;
37451;SDS011;23314;51.114;6.900;2023-09-19T07:41:02;16.77;;;3.60;;
37451;SDS011;23314;51.114;6.900;2023-09-19T07:43:32;15.10;;;3.60;;
37451;SDS011;23314;51.114;6.900;2023-09-19T07:46:02;13.27;;;3.40;;
37451;SDS011;23314;51.114;6.900;2023-09-19T07:48:28;11.93;;;4.07;;
37451;SDS011;23314;51.114;6.900;2023-09-19T07:50:53;10.53;;;3.20;;
37451;SDS011;23314;51.114;6.900;2023-09-19T07:53:20;9.23;;;3.30;;
37451;SDS011;23314;51.114;6.900;2023-09-19T07:55:45;12.83;;;4.03;;
37451;SDS011;23314;51.114;6.900;2023-09-19T07:58:13;12.30;;;3.10;;
37451;SDS011;23314;51.114;6.900;2023-09-19T08:00:38;11.43;;;3.35;;
37451;SDS011;23314;51.114;6.900;2023-09-19T08:03:04;10.50;;;3.10;;
37451;SDS011;23314;51.114;6.900;2023-09-19T08:05:29;9.43;;;3.20;;
37451;SDS011;23314;51.114;6.900;2023-09-19T08:07:54;10.20;;;3.20;;
37451;SDS011;23314;51.114;6.900;2023-09-19T08:10:21;9.85;;;3.03;;
37451;SDS011;23314;51.114;6.900;2023-09-19T08:12:47;10.00;;;3.43;;
37451;SDS011;23314;51.114;6.900;2023-09-19T08:15:17;11.73;;;3.35;;
37451;SDS011;23314;51.114;6.900;2023-09-19T08:17:46;11.85;;;3.05;;
37451;SDS011;23314;51.114;6.900;2023-09-19T08:20:13;15.05;;;3.05;;
37451;SDS011;23314;51.114;6.900;2023-09-19T08:22:51;11.43;;;3.20;;
37451;SDS011;23314;51.114;6.900;2023-09-19T08:25:20;10.50;;;3.17;;
37451;SDS011;23314;51.114;6.900;2023-09-19T08:27:46;13.68;;;2.85;;
37451;SDS011;23314;51.114;6.900;2023-09-19T08:30:17;10.50;;;3.03;;
37451;SDS011;23314;51.114;6.900;2023-09-19T08:32:43;13.35;;;3.03;;
37451;SDS011;23314;51.114;6.900;2023-09-19T08:35:10;9.45;;;2.95;;
37451;SDS011;23314;51.114;6.900;2023-09-19T08:37:35;8.80;;;3.40;;
37451;SDS011;23314;51.114;6.900;2023-09-19T08:40:01;8.65;;;3.10;;
37451;SDS011;23314;51.114;6.900;2023-09-19T08:42:27;10.25;;;2.97;;
37451;SDS011;23314;51.114;6.900;2023-09-19T08:44:52;12.88;;;3.20;;
37451;SDS011;23314;51.114;6.900;2023-09-19T08:47:23;11.48;;;3.22;;
37451;SDS011;23314;51.114;6.900;2023-09-19T08:52:27;9.98;;;3.20;;
37451;SDS011;23314;51.114;6.900;2023-09-19T08:54:58;11.45;;;3.10;;
37451;SDS011;23314;51.114;6.900;2023-09-19T08:57:29;10.35;;;3.30;;
37451;SDS011;23314;51.114;6.900;2023-09-19T09:00:00;12.57;;;3.08;;
37451;SDS011;23314;51.114;6.900;2023-09-19T09:02:26;8.93;;;3.28;;
37451;SDS011;23314;51.114;6.900;2023-09-19T09:04:52;9.05;;;2.90;;
37451;SDS011;23314;51.114;6.900;2023-09-19T09:07:19;10.48;;;3.13;;
37451;SDS011;23314;51.114;6.900;2023-09-19T09:09:46;10.23;;;2.97;;
37451;SDS011;23314;51.114;6.900;2023-09-19T09:12:13;6.63;;;2.70;;
37451;SDS011;23314;51.114;6.900;2023-09-19T09:14:39;8.57;;;3.08;;
37451;SDS011;23314;51.114;6.900;2023-09-19T09:17:06;9.73;;;3.00;;
37451;SDS011;23314;51.114;6.900;2023-09-19T09:19:32;6.15;;;2.53;;
37451;SDS011;23314;51.114;6.900;2023-09-19T09:22:07;7.90;;;3.17;;
37451;SDS011;23314;51.114;6.900;2023-09-19T09:24:33;10.20;;;3.28;;
37451;SDS011;23314;51.114;6.900;2023-09-19T09:27:02;7.85;;;2.92;;
37451;SDS011;23314;51.114;6.900;2023-09-19T09:29:42;8.55;;;2.80;;
37451;SDS011;23314;51.114;6.900;2023-09-19T09:32:45;10.15;;;3.22;;
37451;SDS011;23314;51.114;6.900;2023-09-19T09:35:07;11.52;;;2.97;;
37451;SDS011;23314;51.114;6.900;2023-09-19T09:37:39;8.75;;;3.03;;
37451;SDS011;23314;51.114;6.900;2023-09-19T09:40:08;10.85;;;2.70;;
37451;SDS011;23314;51.114;6.900;2023-09-19T09:42:39;7.18;;;3.00;;
37451;SDS011;23314;51.114;6.900;2023-09-19T09:45:21;8.35;;;2.72;;
37451;SDS011;23314;51.114;6.900;2023-09-19T09:48:02;7.63;;;2.90;;
37451;SDS011;23314;51.114;6.900;2023-09-19T09:50:30;10.43;;;2.83;;
37451;SDS011;23314;51.114;6.900;2023-09-19T09:53:22;7.75;;;2.80;;
37451;SDS011;23314;51.114;6.900;2023-09-19T09:58:33;6.75;;;2.67;;
37451;SDS011;23314;51.114;6.900;2023-09-19T10:01:00;8.05;;;2.60;;
37451;SDS011;23314;51.114;6.900;2023-09-19T10:03:37;7.28;;;2.83;;
37451;SDS011;23314;51.114;6.900;2023-09-19T10:06:13;6.13;;;2.28;;
37451;SDS011;23314;51.114;6.900;2023-09-19T10:11:39;6.22;;;2.80;;
37451;SDS011;23314;51.114;6.900;2023-09-19T10:14:13;7.45;;;2.60;;
37451;SDS011;23314;51.114;6.900;2023-09-19T10:16:43;5.95;;;2.65;;
37451;SDS011;23314;51.114;6.900;2023-09-19T10:19:12;9.32;;;2.97;;
37451;SDS011;23314;51.114;6.900;2023-09-19T10:21:49;6.60;;;2.42;;
37451;SDS011;23314;51.114;6.900;2023-09-19T10:24:16;7.40;;;2.47;;
37451;SDS011;23314;51.114;6.900;2023-09-19T10:26:43;7.75;;;2.90;;
37451;SDS011;23314;51.114;6.900;2023-09-19T10:29:11;8.82;;;2.80;;
37451;SDS011;23314;51.114;6.900;2023-09-19T10:31:39;4.65;;;2.28;;
37451;SDS011;23314;51.114;6.900;2023-09-19T10:34:06;7.85;;;2.40;;
37451;SDS011;23314;51.114;6.900;2023-09-19T10:36:35;8.25;;;2.80;;
37451;SDS011;23314;51.114;6.900;2023-09-19T10:39:02;8.50;;;3.15;;
37451;SDS011;23314;51.114;6.900;2023-09-19T10:41:32;7.55;;;2.78;;
37451;SDS011;23314;51.114;6.900;2023-09-19T10:44:02;7.45;;;2.80;;
37451;SDS011;23314;51.114;6.900;2023-09-19T10:46:31;7.30;;;2.78;;
37451;SDS011;23314;51.114;6.900;2023-09-19T10:48:58;9.40;;;2.80;;
37451;SDS011;23314;51.114;6.900;2023-09-19T10:51:25;7.97;;;2.60;;
37451;SDS011;23314;51.114;6.900;2023-09-19T10:53:59;6.93;;;2.78;;
37451;SDS011;23314;51.114;6.900;2023-09-19T10:56:35;10.30;;;2.70;;
37451;SDS011;23314;51.114;6.900;2023-09-19T10:59:09;6.90;;;2.40;;
37451;SDS011;23314;51.114;6.900;2023-09-19T11:09:44;5.30;;;2.42;;
37451;SDS011;23314;51.114;6.900;2023-09-19T11:12:47;8.65;;;2.55;;
37451;SDS011;23314;51.114;6.900;2023-09-19T11:15:06;3.80;;;2.40;;
37451;SDS011;23314;51.114;6.900;2023-09-19T11:17:34;8.30;;;2.80;;
37451;SDS011;23314;51.114;6.900;2023-09-19T11:30:30;7.28;;;2.75;;
37451;SDS011;23314;51.114;6.900;2023-09-19T11:36:02;6.07;;;2.58;;
37451;SDS011;23314;51.114;6.900;2023-09-19T11:49:15;9.95;;;2.40;;
37451;SDS011;23314;51.114;6.900;2023-09-19T11:51:45;8.40;;;3.28;;
37451;SDS011;23314;51.114;6.900;2023-09-19T11:54:12;4.68;;;2.53;;
37451;SDS011;23314;51.114;6.900;2023-09-19T11:56:43;5.13;;;2.25;;
37451;SDS011;23314;51.114;6.900;2023-09-19T11:59:10;5.65;;;2.53;;
37451;SDS011;23314;51.114;6.900;2023-09-19T12:01:36;6.25;;;2.45;;
37451;SDS011;23314;51.114;6.900;2023-09-19T12:04:08;8.50;;;2.45;;
37451;SDS011;23314;51.114;6.900;2023-09-19T12:06:37;9.57;;;2.58;;
37451;SDS011;23314;51.114;6.900;2023-09-19T12:09:12;6.93;;;2.45;;
37451;SDS011;23314;51.114;6.900;2023-09-19T12:11:42;4.82;;;2.28;;
37451;SDS011;23314;51.114;6.900;2023-09-19T12:14:09;6.63;;;2.50;;
37451;SDS011;23314;51.114;6.900;2023-09-19T12:16:34;6.28;;;2.40;;
37451;SDS011;23314;51.114;6.900;2023-09-19T12:19:20;5.50;;;2.60;;
37451;SDS011;23314;51.114;6.900;2023-09-19T12:21:57;8.43;;;2.78;;
37451;SDS011;23314;51.114;6.900;2023-09-19T12:24:25;6.88;;;2.28;;
37451;SDS011;23314;51.114;6.900;2023-09-19T12:26:52;7.38;;;2.78;;
37451;SDS011;23314;51.114;6.900;2023-09-19T12:29:18;5.05;;;2.45;;
37451;SDS011;23314;51.114;6.900;2023-09-19T12:31:52;7.45;;;2.45;;
37451;SDS011;23314;51.114;6.900;2023-09-19T12:34:24;3.78;;;2.33;;
37451;SDS011;23314;51.114;6.900;2023-09-19T12:39:52;6.00;;;1.98;;
37451;SDS011;23314;51.114;6.900;2023-09-19T12:42:27;7.50;;;2.30;;
37451;SDS011;23314;51.114;6.900;2023-09-19T12:45:00;3.58;;;1.92;;
37451;SDS011;23314;51.114;6.900;2023-09-19T12:47:27;5.47;;;2.40;;
37451;SDS011;23314;51.114;6.900;2023-09-19T12:52:50;5.43;;;2.30;;
37451;SDS011;23314;51.114;6.900;2023-09-19T12:55:20;3.25;;;1.85;;
37451;SDS011;23314;51.114;6.900;2023-09-19T13:00:31;5.20;;;1.67;;
37451;SDS011;23314;51.114;6.900;2023-09-19T13:05:54;3.35;;;1.88;;
37451;SDS011;23314;51.114;6.900;2023-09-19T13:13:36;2.45;;;1.92;;
37451;SDS011;23314;51.114;6.900;2023-09-19T13:16:02;3.25;;;2.00;;
37451;SDS011;23314;51.114;6.900;2023-09-19T13:18:57;5.70;;;1.85;;
37451;SDS011;23314;51.114;6.900;2023-09-19T13:21:30;8.05;;;1.80;;
37451;SDS011;23314;51.114;6.900;2023-09-19T13:24:23;6.40;;;2.10;;
37451;SDS011;23314;51.114;6.900;2023-09-19T13:26:52;9.00;;;1.95;;
37451;SDS011;23314;51.114;6.900;2023-09-19T13:29:18;5.28;;;2.05;;
37451;SDS011;23314;51.114;6.900;2023-09-19T13:31:50;6.63;;;1.70;;
37451;SDS011;23314;51.114;6.900;2023-09-19T13:34:18;4.95;;;2.10;;
37451;SDS011;23314;51.114;6.900;2023-09-19T13:36:44;2.58;;;1.42;;
37451;SDS011;23314;51.114;6.900;2023-09-19T13:39:16;3.55;;;1.73;;
37451;SDS011;23314;51.114;6.900;2023-09-19T13:41:46;2.28;;;1.40;;
37451;SDS011;23314;51.114;6.900;2023-09-19T13:44:12;2.63;;;1.55;;
37451;SDS011;23314;51.114;6.900;2023-09-19T13:46:39;2.95;;;1.58;;
37451;SDS011;23314;51.114;6.900;2023-09-19T13:49:05;2.90;;;1.50;;
37451;SDS011;23314;51.114;6.900;2023-09-19T13:51:31;5.05;;;1.73;;
37451;SDS011;23314;51.114;6.900;2023-09-19T13:53:57;1.85;;;1.45;;
37451;SDS011;23314;51.114;6.900;2023-09-19T13:56:24;5.13;;;1.65;;
37451;SDS011;23314;51.114;6.900;2023-09-19T13:58:53;5.20;;;1.17;;
37451;SDS011;23314;51.114;6.900;2023-09-19T14:01:21;2.28;;;1.40;;
37451;SDS011;23314;51.114;6.900;2023-09-19T14:03:47;2.25;;;1.40;;
37451;SDS011;23314;51.114;6.900;2023-09-19T14:06:14;3.67;;;1.50;;
37451;SDS011;23314;51.114;6.900;2023-09-19T14:08:40;4.07;;;1.55;;
37451;SDS011;23314;51.114;6.900;2023-09-19T14:11:09;5.43;;;2.00;;
37451;SDS011;23314;51.114;6.900;2023-09-19T14:13:34;4.18;;;1.35;;
37451;SDS011;23314;51.114;6.900;2023-09-19T14:16:03;2.90;;;1.15;;
37451;SDS011;23314;51.114;6.900;2023-09-19T14:18:30;3.35;;;1.17;;
37451;SDS011;23314;51.114;6.900;2023-09-19T14:20:56;4.07;;;1.52;;
37451;SDS011;23314;51.114;6.900;2023-09-19T14:23:25;2.92;;;1.50;;
37451;SDS011;23314;51.114;6.900;2023-09-19T14:25:51;5.70;;;1.40;;
37451;SDS011;23314;51.114;6.900;2023-09-19T14:28:18;3.28;;;1.38;;
37451;SDS011;23314;51.114;6.900;2023-09-19T14:30:44;6.93;;;1.52;;
37451;SDS011;23314;51.114;6.900;2023-09-19T14:33:09;4.10;;;1.57;;
37451;SDS011;23314;51.114;6.900;2023-09-19T14:35:36;1.55;;;1.30;;
37451;SDS011;23314;51.114;6.900;2023-09-19T14:38:02;3.75;;;1.30;;
37451;SDS011;23314;51.114;6.900;2023-09-19T14:40:27;6.65;;;1.55;;
37451;SDS011;23314;51.114;6.900;2023-09-19T14:42:53;5.00;;;1.40;;
37451;SDS011;23314;51.114;6.900;2023-09-19T14:45:18;3.30;;;1.35;;
37451;SDS011;23314;51.114;6.900;2023-09-19T14:47:45;3.67;;;1.27;;
37451;SDS011;23314;51.114;6.900;2023-09-19T14:50:11;5.35;;;1.70;;
37451;SDS011;23314;51.114;6.900;2023-09-19T14:52:38;3.03;;;1.38;;
37451;SDS011;23314;51.114;6.900;2023-09-19T14:55:05;2.78;;;1.35;;
37451;SDS011;23314;51.114;6.900;2023-09-19T14:57:31;5.13;;;1.40;;
37451;SDS011;23314;51.114;6.900;2023-09-19T14:59:58;3.38;;;1.30;;
37451;SDS011;23314;51.114;6.900;2023-09-19T15:02:23;2.70;;;1.25;;
37451;SDS011;23314;51.114;6.900;2023-09-19T15:04:49;3.42;;;1.38;;
37451;SDS011;23314;51.114;6.900;2023-09-19T15:07:17;3.40;;;1.58;;
37451;SDS011;23314;51.114;6.900;2023-09-19T15:09:43;2.25;;;1.30;;
37451;SDS011;23314;51.114;6.900;2023-09-19T15:12:08;3.60;;;1.52;;
37451;SDS011;23314;51.114;6.900;2023-09-19T15:14:39;3.90;;;1.27;;
37451;SDS011;23314;51.114;6.900;2023-09-19T15:17:07;1.50;;;1.10;;
37451;SDS011;23314;51.114;6.900;2023-09-19T15:19:32;2.65;;;1.40;;
37451;SDS011;23314;51.114;6.900;2023-09-19T15:21:58;5.20;;;2.08;;
37451;SDS011;23314;51.114;6.900;2023-09-19T15:24:23;2.28;;;1.02;;
37451;SDS011;23314;51.114;6.900;2023-09-19T15:26:51;6.20;;;1.48;;
37451;SDS011;23314;51.114;6.900;2023-09-19T15:29:17;3.50;;;1.20;;
37451;SDS011;23314;51.114;6.900;2023-09-19T15:31:45;3.55;;;1.50;;
37451;SDS011;23314;51.114;6.900;2023-09-19T15:34:10;6.30;;;1.52;;
37451;SDS011;23314;51.114;6.900;2023-09-19T15:36:39;3.00;;;1.30;;
37451;SDS011;23314;51.114;6.900;2023-09-19T15:39:07;3.20;;;1.60;;
37451;SDS011;23314;51.114;6.900;2023-09-19T15:41:37;4.15;;;1.60;;
37451;SDS011;23314;51.114;6.900;2023-09-19T15:44:13;2.60;;;1.27;;
37451;SDS011;23314;51.114;6.900;2023-09-19T15:46:40;3.75;;;1.17;;
37451;SDS011;23314;51.114;6.900;2023-09-19T15:49:07;2.45;;;1.17;;
37451;SDS011;23314;51.114;6.900;2023-09-19T15:51:33;4.50;;;1.38;;
37451;SDS011;23314;51.114;6.900;2023-09-19T15:53:59;2.78;;;1.48;;
37451;SDS011;23314;51.114;6.900;2023-09-19T15:56:28;2.08;;;1.30;;
37451;SDS011;23314;51.114;6.900;2023-09-19T15:58:55;4.63;;;1.40;;
37451;SDS011;23314;51.114;6.900;2023-09-19T16:01:21;3.30;;;1.50;;
37451;SDS011;23314;51.114;6.900;2023-09-19T16:03:48;2.30;;;1.23;;
37451;SDS011;23314;51.114;6.900;2023-09-19T16:06:15;3.90;;;1.48;;
37451;SDS011;23314;51.114;6.900;2023-09-19T16:08:48;4.10;;;1.45;;